TimeEDT,TemperatureF,Dew PointF,Humidity,Sea Level PressureIn,VisibilityMPH,Wind Direction,Wind SpeedMPH,Gust SpeedMPH,PrecipitationIn,Events,Conditions,WindDirDegrees,DateUTC
12:15 AM,70.7,65.7,84,29.94,10.0,SSE,4.6,-,N/A,,Clear,150,2013-08-30 04:15:00
12:35 AM,71.4,65.3,81,29.94,10.0,SSE,4.6,-,N/A,,Clear,150,2013-08-30 04:35:00
12:55 AM,71.2,65.5,82,29.95,10.0,Calm,Calm,-,N/A,,Clear,0,2013-08-30 04:55:00
1:15 AM,70.5,66.0,86,29.94,10.0,South,5.8,-,N/A,,Scattered Clouds,180,2013-08-30 05:15:00
1:35 AM,72.0,64.9,78,29.93,10.0,SSE,4.6,-,N/A,Rain,Light Rain,160,2013-08-30 05:35:00
1:55 AM,71.4,65.3,81,29.92,10.0,SSE,5.8,-,N/A,,Scattered Clouds,160,2013-08-30 05:55:00
2:15 AM,71.8,65.5,80,29.91,10.0,South,4.6,-,N/A,,Scattered Clouds,170,2013-08-30 06:15:00
2:35 AM,71.8,65.1,79,29.91,10.0,South,3.5,-,N/A,,Mostly Cloudy,170,2013-08-30 06:35:00
2:55 AM,71.6,65.3,80,29.91,10.0,South,5.8,-,N/A,,Scattered Clouds,170,2013-08-30 06:55:00
3:14 AM,72.3,65.3,78,29.91,10.0,South,6.9,-,N/A,,Scattered Clouds,180,2013-08-30 07:14:00
3:35 AM,72.7,65.1,77,29.90,10.0,South,5.8,-,N/A,,Scattered Clouds,190,2013-08-30 07:35:00
3:55 AM,72.7,64.9,77,29.89,10.0,South,3.5,-,N/A,,Mostly Cloudy,180,2013-08-30 07:55:00
4:14 AM,72.7,65.1,77,29.87,10.0,South,3.5,-,N/A,,Overcast,190,2013-08-30 08:14:00
4:35 AM,72.5,65.5,79,29.86,10.0,Calm,Calm,-,N/A,,Overcast,0,2013-08-30 08:35:00
4:55 AM,71.2,65.8,83,29.85,10.0,SSE,4.6,-,N/A,,Overcast,150,2013-08-30 08:55:00
5:15 AM,71.1,66.4,85,29.85,10.0,SSE,3.5,-,N/A,,Overcast,150,2013-08-30 09:15:00
5:35 AM,70.7,66.7,87,29.85,10.0,SSE,4.6,-,N/A,Rain,Light Rain,150,2013-08-30 09:35:00
5:54 AM,69.8,67.1,91,29.84,10.0,Calm,Calm,-,N/A,Rain,Light Rain,0,2013-08-30 09:54:00
6:15 AM,68.9,67.6,96,29.84,7.0,Calm,Calm,-,N/A,,Scattered Clouds,0,2013-08-30 10:15:00
6:35 AM,69.8,67.3,92,29.83,10.0,Calm,Calm,-,N/A,,Mostly Cloudy,0,2013-08-30 10:35:00
6:54 AM,69.8,67.3,92,29.83,10.0,Calm,Calm,-,N/A,,Overcast,0,2013-08-30 10:54:00
7:15 AM,69.1,67.5,95,29.83,7.0,Calm,Calm,-,N/A,,Overcast,0,2013-08-30 11:15:00
7:34 AM,69.4,67.6,94,29.84,7.0,Calm,Calm,-,N/A,,Mostly Cloudy,0,2013-08-30 11:34:00
7:55 AM,69.3,67.8,95,29.82,5.0,SE,4.6,-,N/A,,Scattered Clouds,130,2013-08-30 11:55:00
8:14 AM,70.2,67.8,92,29.82,7.0,Calm,Calm,-,N/A,Rain,Rain,0,2013-08-30 12:14:00
8:35 AM,70.5,68.2,92,29.81,7.0,Calm,Calm,-,N/A,,Mostly Cloudy,0,2013-08-30 12:35:00
8:54 AM,70.7,68.4,92,29.84,7.0,Calm,Calm,-,N/A,Rain,Light Rain,0,2013-08-30 12:54:00
9:15 AM,69.8,68.2,95,29.84,2.5,Calm,Calm,-,N/A,Rain,Heavy Rain,0,2013-08-30 13:15:00
9:35 AM,69.4,68.5,97,29.83,2.0,Calm,Calm,-,N/A,Rain,Rain,0,2013-08-30 13:35:00
9:55 AM,69.3,68.7,98,29.82,1.2,ESE,3.5,-,N/A,Rain,Rain,120,2013-08-30 13:55:00
10:15 AM,69.1,68.9,99,29.82,1.5,Calm,Calm,-,N/A,Rain,Rain,0,2013-08-30 14:15:00
10:35 AM,69.3,68.5,98,29.80,2.5,Calm,Calm,-,N/A,Rain,Rain,0,2013-08-30 14:35:00
10:54 AM,69.1,68.4,98,29.80,1.8,South,3.5,-,N/A,Rain,Heavy Rain,190,2013-08-30 14:54:00
11:15 AM,69.1,68.4,98,29.78,2.5,SSE,4.6,-,N/A,Rain,Heavy Rain,150,2013-08-30 15:15:00
11:35 AM,68.9,68.0,97,29.77,4.0,South,8.1,-,N/A,Rain,Light Rain,180,2013-08-30 15:35:00
11:54 AM,68.5,67.1,95,29.76,7.0,SSE,4.6,-,N/A,,Overcast,160,2013-08-30 15:54:00
12:15 PM,68.9,67.5,95,29.75,7.0,South,6.9,-,N/A,,Overcast,170,2013-08-30 16:15:00
12:35 PM,68.9,67.6,96,29.75,5.0,South,5.8,-,N/A,,Overcast,190,2013-08-30 16:35:00
12:55 PM,69.1,68.0,96,29.75,5.0,South,5.8,-,N/A,,Overcast,190,2013-08-30 16:55:00
1:15 PM,69.1,68.0,96,29.75,5.0,South,4.6,-,N/A,,Overcast,180,2013-08-30 17:15:00
1:35 PM,69.3,68.2,96,29.74,2.5,South,4.6,-,N/A,,Light Drizzle,190,2013-08-30 17:35:00
1:55 PM,69.6,68.5,96,29.74,2.5,SSW,4.6,-,N/A,,Light Drizzle,210,2013-08-30 17:55:00
2:15 PM,70.2,68.9,96,29.74,5.0,SSW,6.9,-,N/A,,Overcast,210,2013-08-30 18:15:00
2:35 PM,71.1,69.3,94,29.73,7.0,WSW,3.5,-,N/A,,Overcast,250,2013-08-30 18:35:00
2:55 PM,72.1,69.8,92,29.73,7.0,Calm,Calm,-,N/A,,Overcast,0,2013-08-30 18:55:00
3:15 PM,74.3,70.2,87,29.73,10.0,West,3.5,-,N/A,,Mostly Cloudy,280,2013-08-30 19:15:00
3:35 PM,75.2,69.6,83,29.73,10.0,NW,5.8,-,N/A,,Mostly Cloudy,320,2013-08-30 19:35:00
3:55 PM,74.7,69.8,85,29.73,10.0,NNW,5.8,-,N/A,,Mostly Cloudy,340,2013-08-30 19:55:00
4:14 PM,73.6,69.1,86,29.73,10.0,NNW,5.8,-,N/A,,Overcast,340,2013-08-30 20:14:00
4:35 PM,73.6,69.1,86,29.73,10.0,NNW,4.6,-,N/A,,Overcast,340,2013-08-30 20:35:00
4:55 PM,73.8,69.1,85,29.74,10.0,NNW,8.1,-,N/A,,Overcast,340,2013-08-30 20:55:00
5:14 PM,73.4,68.0,83,29.74,10.0,NNW,6.9,-,N/A,,Overcast,340,2013-08-30 21:14:00
5:35 PM,72.7,68.2,86,29.75,10.0,North,5.8,-,N/A,,Overcast,350,2013-08-30 21:35:00
5:55 PM,73.2,67.8,83,29.75,10.0,North,9.2,18.4,N/A,,Mostly Cloudy,360,2013-08-30 21:55:00
6:15 PM,74.3,67.6,80,29.75,10.0,North,10.4,-,N/A,,Mostly Cloudy,360,2013-08-30 22:15:00
6:35 PM,73.9,66.4,77,29.76,10.0,North,6.9,-,N/A,,Scattered Clouds,10,2013-08-30 22:35:00
6:55 PM,73.0,65.3,77,29.76,10.0,North,4.6,-,N/A,,Clear,360,2013-08-30 22:55:00
7:15 PM,72.7,65.5,78,29.77,10.0,North,4.6,-,N/A,,Scattered Clouds,10,2013-08-30 23:15:00
7:35 PM,72.1,65.5,79,29.78,10.0,North,5.8,-,N/A,,Mostly Cloudy,360,2013-08-30 23:35:00
7:54 PM,71.8,65.3,80,29.79,10.0,NNE,4.6,-,N/A,,Mostly Cloudy,20,2013-08-30 23:54:00
8:15 PM,70.9,63.9,78,29.80,10.0,NNE,4.6,-,N/A,,Clear,30,2013-08-31 00:15:00
8:35 PM,69.8,63.5,80,29.81,10.0,NNE,3.5,-,N/A,,Clear,30,2013-08-31 00:35:00
8:54 PM,69.3,63.5,82,29.82,10.0,Calm,Calm,-,N/A,,Clear,0,2013-08-31 00:54:00
9:15 PM,68.4,63.5,84,29.83,10.0,Calm,Calm,-,N/A,,Clear,0,2013-08-31 01:15:00
9:35 PM,68.0,63.5,85,29.84,10.0,Calm,Calm,-,N/A,,Clear,0,2013-08-31 01:35:00
9:55 PM,67.3,64.2,90,29.84,10.0,Calm,Calm,-,N/A,,Clear,0,2013-08-31 01:55:00
10:15 PM,68.4,64.8,88,29.84,10.0,North,4.6,-,N/A,,Clear,10,2013-08-31 02:15:00
10:35 PM,68.9,64.9,87,29.85,10.0,Calm,Calm,-,N/A,,Mostly Cloudy,0,2013-08-31 02:35:00
10:55 PM,68.9,64.6,86,29.84,10.0,North,5.8,-,N/A,,Mostly Cloudy,10,2013-08-31 02:55:00
11:15 PM,68.0,63.7,86,29.84,10.0,Calm,Calm,-,N/A,,Clear,0,2013-08-31 03:15:00
11:34 PM,67.3,63.5,88,29.85,10.0,Calm,Calm,-,N/A,,Clear,0,2013-08-31 03:34:00
11:55 PM,67.3,63.7,88,29.85,10.0,Calm,Calm,-,N/A,,Mostly Cloudy,0,2013-08-31 03:55:00